KFSM Airport (Fort Smith Rgnl) Information

FAA: FSM - ICAO: KFSM

KFSM Airport Location

State Arkansas
County Sebastian
City Fort Smith
KFSM Airport is 3 miles southeast of Fort Smith, AR.
Latitude 35-20-11.7000N
Longitude 094-22-02.8000W
Elevation 469ft

KFSM Airport METARs

METAR KFSM 302153Z 13005KT 10SM CLR 27/01 A3002 RMK AO2 SLP161 T02720011
Altimeter 30.02"
Temperature 27.2°C (81.0°F)
Wind 130° at 5KT
Clouds Skies are clear.
Visibility 10.0mi
Time observed: 2022-09-30T21:53:00Z

KFSM Airport Details

Status Operational
Activation July 1941
Ownership Public
Usage Public
Chart MEMPHIS
ATC on-site Yes
Beacon schedule sunset-sunrise
Beacon color clear green

KFSM Airport Contacts

Owner FORT SMITH ARPT COMMISSION
Owner address 6700 MCKENNON BLVD SUITE 200, FORT SMITH, AR 72903
Owner phone 479-452-7000
Manager JOHN ROBERTSON
Manager address P.O. BOX 667, FORREST CITY, AR 72335
Manager phone 901-240-8262

KFSM Airport (Fort Smith Rgnl) Radio Frequencies

KFSM (Airport) Radio Frequencies

UNICOM 122.95
Common traffic advisory frequency (CTAF) 118.3